Amesbury, MA

12:18 PM EDT on May 05, 2015 (GMT -0400)
So Hampton Rd | | Change Station
CLOSE
Current Station
Personal Weather Station
Location: Amesbury, MA
Elevation: 85 ft
Nearby Weather Stations

Elev 85 ft 42.87 °N, 70.93 °W | Updated 14 minutes ago

Mostly Cloudy
Mostly Cloudy
79.7 °F
Feels Like 79 °F
N
3.2
Wind Variable Wind from West

Today
High -- | Low -- °F
--% Chance of Precip.
Yesterday
High -- | Low -- °F
Precip. -- in
5:32 AM 7:48 PM
Full, 98% visible
Pressure 30.21 in
Visibility 10.0 miles
Clouds Scattered Clouds 6500 ft
Heat Index 79 °F
Dew Point 48 °F
Humidity 33%
Rainfall 0.00 in
Snow Depth Not available.
UV 8 out of 12
Pollen 9.30 out of 12
Air Quality Not available.
Flu Activity Widespread
METAR KLWM 051554Z 36006KT 10SM SCT065 22/08 A3021 RMK AO2 SLP228 T02220078

More Conditions Fewer Conditions

Pressure 30.21 in
Visibility 10.0 miles
Clouds Scattered Clouds 6500 ft
Heat Index 79 °F
Dew Point 48 °F
Humidity 33%
Rainfall 0.00 in
Snow Depth Not available.
UV 8 out of 12
Pollen 9.30 out of 12
Air Quality Not available.
Flu Activity Widespread
METAR KLWM 051554Z 36006KT 10SM SCT065 22/08 A3021 RMK AO2 SLP228 T02220078

More Conditions Fewer Conditions

10-Day Weather Forecast

Almanac

Astronomy

May. 05, 2015 Rise Set
Actual Time
Civil Twilight
Nautical Twilight
Astronomical Twilight
Moon
Length of Visible Light
Length of Day
Tomorrow will be .
, % of the Moon is Illuminated

Today's Extremes

State Highs State Lows

Community

WunderPhotos

Upload Photos

1,818,938 photos uploaded!

WunderBlogs® & News

Nearby

Air Quality

  Air Quality AQ Index Pollutant
Not available.

Snow Depth

Station Depth Elevation

Earthquake Activity

City Distance Mag. Time & Date
Minimum magnitude displayed is 2.5.

Coastal Water Temperatures

Place Temperature

Stations

Nearby Weather Stations

Station Location Temp. Windchill Dew Point Humidity Wind Precip. Elev Updated Type